Time;durP1;ratioP1;P1;durP2;ratioP2;P2;SDS_P1;SDS_P2;PMS_P1;PMS_P2;Temp;Humidity;BMP_temperature;BMP_pressure;BME280_temperature;BME280_humidity;BME280_pressure;Samples;Min_cycle;Max_cycle;Signal;HPM_P1;HPM_P2
2023/10/22 00:02:17;;;;;;;;;;;12.90;98.50;;;;;;5123919;27;19908;-71
2023/10/22 00:04:44;;;;;;;;;;;12.80;98.50;;;;;;5112231;27;19931;-71
2023/10/22 00:07:10;;;;;;;;;;;12.80;98.40;;;;;;5094502;28;20272;-71
2023/10/22 00:09:35;;;;;;;;;;;12.90;98.50;;;;;;5103394;28;19970;-71
2023/10/22 00:12:01;;;;;;;;;;;12.90;98.40;;;;;;5104647;28;19912;-71
2023/10/22 00:14:27;;;;;;;;;;;12.80;98.40;;;;;;5117539;27;19919;-71
2023/10/22 00:16:52;;;;;;;;;;;12.90;98.40;;;;;;5117360;27;19934;-70
2023/10/22 00:19:18;;;;;;;;;;;12.90;98.50;;;;;;5115866;27;19932;-70
2023/10/22 00:21:45;;;;;;;;;;;12.90;98.40;;;;;;5118344;27;20273;-70
2023/10/22 00:24:11;;;;;;;;;;;12.90;98.40;;;;;;5113133;28;19966;-70
2023/10/22 00:26:36;;;;;;;;;;;12.90;98.50;;;;;;5112092;28;19942;-70
2023/10/22 00:29:02;;;;;;;;;;;12.90;98.40;;;;;;5103483;28;19968;-70
2023/10/22 00:31:28;;;;;;;;;;;12.90;98.60;;;;;;5103834;27;20360;-70
2023/10/22 00:33:53;;;;;;;;;;;12.90;98.50;;;;;;5100451;28;20409;-70
2023/10/22 00:36:19;;;;;;;;;;;12.90;98.40;;;;;;5099772;28;20136;-70
2023/10/22 00:38:44;;;;;;;;;;;12.90;98.40;;;;;;5106905;28;19916;-70
2023/10/22 00:41:10;;;;;;;;;;;12.90;98.70;;;;;;5095486;28;19918;-70
2023/10/22 00:43:35;;;;;;;;;;;12.90;98.50;;;;;;5112384;28;20276;-70
2023/10/22 00:46:02;;;;;;;;;;;12.90;98.40;;;;;;5112903;28;20331;-70
2023/10/22 00:48:28;;;;;;;;;;;12.90;98.40;;;;;;5113146;28;19939;-70
2023/10/22 00:50:53;;;;;;;;;;;12.90;98.40;;;;;;5113090;28;19939;-70
2023/10/22 00:53:19;;;;;;;;;;;12.90;98.40;;;;;;5111717;28;20261;-70
2023/10/22 00:55:46;;;;;;;;;;;12.90;98.40;;;;;;5104624;28;20391;-70
2023/10/22 00:58:15;;;;;;;;;;;12.90;98.40;;;;;;5110257;28;20014;-70
2023/10/22 01:00:40;;;;;;;;;;;12.90;98.40;;;;;;5126583;27;20010;-70
2023/10/22 01:03:06;;;;;;;;;;;12.90;98.40;;;;;;5111791;27;20085;-70
2023/10/22 01:05:32;;;;;;;;;;;12.90;98.40;;;;;;5105741;28;20309;-71
2023/10/22 01:07:57;;;;;;;;;;;12.90;98.40;;;;;;5114625;27;20367;-71
2023/10/22 01:10:23;;;;;;;;;;;12.90;98.40;;;;;;5110353;28;19939;-71
2023/10/22 01:12:49;;;;;;;;;;;12.90;98.40;;;;;;5111682;27;19912;-71
2023/10/22 01:15:14;;;;;;;;;;;12.90;98.40;;;;;;5111596;28;19915;-70
2023/10/22 01:17:40;;;;;;;;;;;12.90;98.40;;;;;;5112120;28;19924;-70
2023/10/22 01:20:06;;;;;;;;;;;12.90;98.40;;;;;;5112210;28;19916;-70
2023/10/22 01:22:34;;;;;;;;;;;12.90;98.40;;;;;;5116047;27;19937;-70
2023/10/22 01:25:00;;;;;;;;;;;12.90;98.40;;;;;;5122842;27;20305;-70
2023/10/22 01:27:26;;;;;;;;;;;12.90;98.40;;;;;;5098542;28;19989;-70
2023/10/22 01:29:51;;;;;;;;;;;12.90;98.40;;;;;;5132666;27;19932;-70
2023/10/22 01:32:17;;;;;;;;;;;12.90;98.40;;;;;;5111440;27;19920;-70
2023/10/22 01:34:42;;;;;;;;;;;12.90;98.30;;;;;;5111122;28;19908;-70
2023/10/22 01:37:08;;;;;;;;;;;12.90;98.30;;;;;;5110779;28;20002;-70
2023/10/22 01:39:33;;;;;;;;;;;12.90;98.40;;;;;;5119408;27;19915;-70
2023/10/22 01:41:59;;;;;;;;;;;12.90;98.40;;;;;;5111146;28;19912;-70
2023/10/22 01:44:24;;;;;;;;;;;12.90;98.40;;;;;;5131419;27;20415;-70
2023/10/22 01:46:50;;;;;;;;;;;12.90;98.40;;;;;;5132002;27;20048;-70
2023/10/22 01:49:15;;;;;;;;;;;12.90;98.40;;;;;;5094755;27;19916;-70
2023/10/22 01:51:41;;;;;;;;;;;12.90;98.30;;;;;;5104870;28;20018;-70
2023/10/22 01:54:06;;;;;;;;;;;12.90;98.30;;;;;;5107614;28;20003;-70
2023/10/22 01:56:32;;;;;;;;;;;12.90;98.30;;;;;;5106101;28;19912;-70
2023/10/22 01:58:58;;;;;;;;;;;12.90;98.30;;;;;;5106928;28;20250;-70
2023/10/22 02:01:25;;;;;;;;;;;13.00;98.40;;;;;;5098393;27;19960;-70
2023/10/22 02:03:51;;;;;;;;;;;12.90;98.30;;;;;;5110774;28;19912;-70
2023/10/22 02:06:16;;;;;;;;;;;13.00;98.40;;;;;;5110786;28;19915;-70
2023/10/22 02:08:42;;;;;;;;;;;12.90;98.30;;;;;;5100704;28;19973;-70
2023/10/22 02:11:07;;;;;;;;;;;12.90;98.30;;;;;;5110590;28;20390;-70
2023/10/22 02:13:33;;;;;;;;;;;12.90;98.40;;;;;;5117554;27;20340;-70
2023/10/22 02:15:58;;;;;;;;;;;13.00;98.40;;;;;;5109235;28;20006;-70
2023/10/22 02:18:24;;;;;;;;;;;13.00;98.30;;;;;;5110100;28;19928;-70
2023/10/22 02:20:57;;;;;;;;;;;12.90;98.30;;;;;;5110166;28;19961;-70
2023/10/22 02:23:23;;;;;;;;;;;12.90;98.40;;;;;;5108866;28;19908;-70
2023/10/22 02:25:49;;;;;;;;;;;13.00;98.40;;;;;;5108602;28;19912;-70
2023/10/22 02:28:17;;;;;;;;;;;13.00;98.40;;;;;;5126279;27;19913;-70
2023/10/22 02:30:44;;;;;;;;;;;12.90;98.30;;;;;;5112314;27;20360;-70
2023/10/22 02:33:09;;;;;;;;;;;12.90;98.30;;;;;;5108748;27;20344;-70
2023/10/22 02:35:38;;;;;;;;;;;12.90;98.40;;;;;;5107145;27;19916;-70
2023/10/22 02:38:05;;;;;;;;;;;12.90;98.40;;;;;;5107416;28;19916;-71
2023/10/22 02:40:33;;;;;;;;;;;13.00;98.40;;;;;;5108973;28;20132;-71
2023/10/22 02:42:58;;;;;;;;;;;12.90;98.40;;;;;;5110441;28;20509;-71
2023/10/22 02:45:24;;;;;;;;;;;12.90;98.40;;;;;;5110697;27;19908;-71
2023/10/22 02:47:49;;;;;;;;;;;12.90;98.40;;;;;;5103431;28;19954;-71
2023/10/22 02:50:15;;;;;;;;;;;12.90;98.40;;;;;;5142025;27;19907;-71
2023/10/22 02:52:40;;;;;;;;;;;12.90;98.40;;;;;;5104156;28;19908;-71
2023/10/22 02:55:06;;;;;;;;;;;12.90;98.40;;;;;;5100324;28;19923;-71
2023/10/22 02:57:32;;;;;;;;;;;12.90;98.40;;;;;;5110902;28;19918;-71
2023/10/22 02:59:57;;;;;;;;;;;12.90;98.40;;;;;;5113090;28;20398;-71
2023/10/22 03:02:23;;;;;;;;;;;12.90;98.40;;;;;;5106469;28;19916;-71
2023/10/22 03:04:49;;;;;;;;;;;12.90;98.40;;;;;;5104988;28;19912;-70
2023/10/22 03:07:14;;;;;;;;;;;12.90;98.40;;;;;;5109859;28;20388;-70
2023/10/22 03:09:40;;;;;;;;;;;12.90;98.50;;;;;;5103381;28;20474;-71
2023/10/22 03:12:06;;;;;;;;;;;12.90;98.50;;;;;;5140781;27;19912;-71
2023/10/22 03:14:31;;;;;;;;;;;12.90;98.40;;;;;;5109864;27;19924;-71
2023/10/22 03:16:57;;;;;;;;;;;12.90;98.50;;;;;;5109849;28;19912;-71
2023/10/22 03:19:22;;;;;;;;;;;12.90;98.50;;;;;;5109538;28;20318;-71
2023/10/22 03:21:48;;;;;;;;;;;12.90;98.50;;;;;;5108204;28;19911;-71
2023/10/22 03:24:15;;;;;;;;;;;12.90;98.50;;;;;;5109827;28;20284;-70
2023/10/22 03:26:40;;;;;;;;;;;12.80;98.50;;;;;;5109456;28;19908;-70
2023/10/22 03:29:06;;;;;;;;;;;12.90;98.60;;;;;;5108480;28;19916;-71
2023/10/22 03:31:33;;;;;;;;;;;12.80;98.50;;;;;;5110696;28;20087;-71
2023/10/22 03:33:59;;;;;;;;;;;12.80;98.50;;;;;;5117555;28;19912;-71
2023/10/22 03:36:24;;;;;;;;;;;12.80;98.60;;;;;;5109471;28;19911;-71
2023/10/22 03:38:49;;;;;;;;;;;12.80;98.60;;;;;;5101344;28;19911;-71
2023/10/22 03:41:15;;;;;;;;;;;12.80;98.60;;;;;;5098962;28;19919;-71
2023/10/22 03:43:41;;;;;;;;;;;12.80;98.70;;;;;;5109340;27;20364;-71
2023/10/22 03:46:06;;;;;;;;;;;12.80;98.80;;;;;;5111899;28;19908;-71
2023/10/22 03:48:32;;;;;;;;;;;12.80;98.80;;;;;;5108352;28;20345;-70
2023/10/22 03:50:58;;;;;;;;;;;12.80;98.80;;;;;;5109744;28;20365;-70
2023/10/22 03:53:23;;;;;;;;;;;12.80;98.80;;;;;;5100896;28;19957;-71
2023/10/22 03:55:49;;;;;;;;;;;12.80;98.70;;;;;;5108262;28;19919;-71
2023/10/22 03:58:14;;;;;;;;;;;12.80;98.70;;;;;;5109460;28;20018;-70
2023/10/22 04:00:40;;;;;;;;;;;12.80;98.80;;;;;;5109572;28;19927;-70
2023/10/22 04:03:05;;;;;;;;;;;12.80;98.80;;;;;;5109984;27;20414;-70
2023/10/22 04:05:31;;;;;;;;;;;12.80;98.80;;;;;;5105314;28;19912;-70
2023/10/22 04:07:57;;;;;;;;;;;12.70;98.80;;;;;;5097650;28;19911;-70
2023/10/22 04:10:22;;;;;;;;;;;12.70;98.80;;;;;;5106056;28;19994;-70
2023/10/22 04:12:48;;;;;;;;;;;12.70;98.80;;;;;;5130403;27;20003;-70
2023/10/22 04:15:14;;;;;;;;;;;12.70;98.80;;;;;;5106497;28;19990;-70
2023/10/22 04:17:39;;;;;;;;;;;12.70;98.80;;;;;;5102352;28;19912;-70
2023/10/22 04:20:05;;;;;;;;;;;12.70;98.90;;;;;;5106501;28;20261;-70
2023/10/22 04:22:31;;;;;;;;;;;12.70;98.80;;;;;;5109012;28;20015;-70
2023/10/22 04:24:57;;;;;;;;;;;12.70;98.90;;;;;;5100878;28;19912;-70
2023/10/22 04:27:22;;;;;;;;;;;12.70;98.80;;;;;;5108876;28;19915;-70
2023/10/22 04:29:48;;;;;;;;;;;12.70;98.90;;;;;;5109441;28;19966;-70
2023/10/22 04:32:14;;;;;;;;;;;12.70;98.90;;;;;;5101029;28;19916;-70
2023/10/22 04:34:40;;;;;;;;;;;12.70;98.90;;;;;;5114145;27;20086;-70
2023/10/22 04:37:06;;;;;;;;;;;12.70;98.90;;;;;;5112160;27;19907;-70
2023/10/22 04:39:32;;;;;;;;;;;12.70;98.90;;;;;;5117110;27;20619;-70
2023/10/22 04:41:57;;;;;;;;;;;12.70;99.00;;;;;;5124347;27;19914;-70
2023/10/22 04:44:23;;;;;;;;;;;12.70;98.90;;;;;;5120774;27;19907;-70
2023/10/22 04:46:49;;;;;;;;;;;12.70;98.90;;;;;;5105676;28;20300;-70
2023/10/22 04:49:15;;;;;;;;;;;12.70;98.90;;;;;;5108232;28;19908;-70
2023/10/22 04:51:40;;;;;;;;;;;12.70;98.90;;;;;;5113769;27;19908;-70
2023/10/22 04:54:06;;;;;;;;;;;12.70;99.00;;;;;;5110864;28;20436;-70
2023/10/22 04:56:32;;;;;;;;;;;12.70;99.00;;;;;;5112256;28;20381;-70
2023/10/22 04:58:57;;;;;;;;;;;12.70;99.00;;;;;;5111710;28;19999;-70
2023/10/22 05:01:23;;;;;;;;;;;12.70;99.00;;;;;;5121656;27;20016;-71
2023/10/22 05:03:48;;;;;;;;;;;12.70;98.90;;;;;;5111446;27;20240;-71
2023/10/22 05:06:14;;;;;;;;;;;12.70;99.10;;;;;;5111026;28;20457;-70
2023/10/22 05:08:40;;;;;;;;;;;12.70;99.00;;;;;;5101382;28;19923;-70
2023/10/22 05:11:06;;;;;;;;;;;12.70;99.00;;;;;;5128036;27;20621;-70
2023/10/22 05:13:31;;;;;;;;;;;12.70;99.00;;;;;;5108061;28;19939;-70
2023/10/22 05:15:57;;;;;;;;;;;12.70;99.00;;;;;;5091166;28;19968;-71
2023/10/22 05:18:23;;;;;;;;;;;12.70;99.00;;;;;;5105019;27;19919;-71
2023/10/22 05:20:51;;;;;;;;;;;12.70;99.00;;;;;;5114335;27;20414;-70
2023/10/22 05:23:16;;;;;;;;;;;12.70;99.10;;;;;;5101419;27;19912;-70
2023/10/22 05:25:42;;;;;;;;;;;12.70;99.00;;;;;;5105529;28;20371;-70
2023/10/22 05:28:07;;;;;;;;;;;12.70;99.10;;;;;;5111601;28;19908;-70
2023/10/22 05:30:33;;;;;;;;;;;12.70;99.00;;;;;;5110176;28;19991;-71
2023/10/22 05:33:01;;;;;;;;;;;12.70;99.10;;;;;;5103521;28;20003;-70
2023/10/22 05:35:27;;;;;;;;;;;12.70;99.10;;;;;;5111190;28;19965;-70
2023/10/22 05:37:52;;;;;;;;;;;12.70;99.10;;;;;;5110762;28;19965;-70
2023/10/22 05:40:18;;;;;;;;;;;12.70;99.10;;;;;;5110389;28;19916;-70
2023/10/22 05:42:43;;;;;;;;;;;12.70;99.00;;;;;;5111417;27;19915;-71
2023/10/22 05:45:09;;;;;;;;;;;12.70;99.00;;;;;;5110612;27;19908;-70
2023/10/22 05:47:35;;;;;;;;;;;12.70;99.10;;;;;;5115389;27;19958;-70
2023/10/22 05:50:01;;;;;;;;;;;12.70;99.10;;;;;;5114666;27;20304;-70
2023/10/22 05:52:28;;;;;;;;;;;12.70;99.00;;;;;;5108149;28;19964;-70
2023/10/22 05:54:54;;;;;;;;;;;12.70;99.00;;;;;;5107521;28;19948;-70
2023/10/22 05:57:23;;;;;;;;;;;12.70;99.00;;;;;;5109203;28;19942;-71
2023/10/22 05:59:51;;;;;;;;;;;12.70;99.00;;;;;;5107440;28;19916;-71
2023/10/22 06:02:19;;;;;;;;;;;12.70;99.00;;;;;;5108063;28;20106;-70
2023/10/22 06:04:44;;;;;;;;;;;12.70;99.00;;;;;;5110613;27;19908;-71
2023/10/22 06:07:10;;;;;;;;;;;12.70;99.00;;;;;;5110709;28;20594;-71
2023/10/22 06:09:35;;;;;;;;;;;12.70;99.00;;;;;;5109435;28;19912;-70
2023/10/22 06:12:01;;;;;;;;;;;12.70;99.00;;;;;;5110460;28;19911;-70
2023/10/22 06:14:26;;;;;;;;;;;12.70;99.00;;;;;;5107215;28;19951;-70
2023/10/22 06:16:52;;;;;;;;;;;12.70;99.00;;;;;;5099136;28;20422;-70
2023/10/22 06:19:17;;;;;;;;;;;12.70;99.00;;;;;;5108507;28;19957;-70
2023/10/22 06:21:43;;;;;;;;;;;12.70;99.00;;;;;;5110404;28;19908;-70
2023/10/22 06:24:09;;;;;;;;;;;12.70;99.00;;;;;;5109948;28;19942;-70
2023/10/22 06:26:34;;;;;;;;;;;12.70;99.00;;;;;;5110233;28;19912;-70
2023/10/22 06:29:00;;;;;;;;;;;12.60;98.90;;;;;;5110168;28;20417;-70
2023/10/22 06:31:26;;;;;;;;;;;12.60;98.90;;;;;;5106419;27;20002;-70
2023/10/22 06:33:51;;;;;;;;;;;12.60;98.90;;;;;;5109773;28;20014;-70
2023/10/22 06:36:20;;;;;;;;;;;12.60;98.80;;;;;;5109760;28;19918;-70
2023/10/22 06:38:46;;;;;;;;;;;12.60;98.80;;;;;;5108094;28;19919;-70
2023/10/22 06:41:16;;;;;;;;;;;12.60;98.80;;;;;;5109843;28;19915;-70
2023/10/22 06:43:42;;;;;;;;;;;12.60;98.90;;;;;;5109812;28;19915;-70
2023/10/22 06:46:07;;;;;;;;;;;12.70;98.80;;;;;;5101040;28;19914;-70
2023/10/22 06:48:33;;;;;;;;;;;12.60;98.80;;;;;;5109564;27;19931;-70
2023/10/22 06:50:59;;;;;;;;;;;12.60;98.80;;;;;;5117235;27;19908;-70
2023/10/22 06:53:24;;;;;;;;;;;12.60;98.90;;;;;;5107422;28;19908;-70
2023/10/22 06:55:50;;;;;;;;;;;12.60;98.80;;;;;;5109515;27;19912;-70
2023/10/22 06:58:16;;;;;;;;;;;12.60;98.80;;;;;;5097496;28;19919;-70
2023/10/22 07:00:42;;;;;;;;;;;12.60;98.80;;;;;;5099720;27;19955;-70
2023/10/22 07:03:07;;;;;;;;;;;12.70;98.90;;;;;;5106147;28;20026;-70
2023/10/22 07:05:33;;;;;;;;;;;12.60;98.80;;;;;;5092278;28;19980;-70
2023/10/22 07:07:59;;;;;;;;;;;12.70;98.80;;;;;;5109056;28;19964;-70
2023/10/22 07:10:24;;;;;;;;;;;12.60;98.80;;;;;;5113329;27;19919;-70
2023/10/22 07:12:50;;;;;;;;;;;12.60;98.70;;;;;;5130096;27;20538;-70
2023/10/22 07:15:15;;;;;;;;;;;12.60;98.80;;;;;;5107922;28;19911;-70
2023/10/22 07:17:41;;;;;;;;;;;12.60;98.80;;;;;;5099291;28;19908;-70
2023/10/22 07:20:07;;;;;;;;;;;12.60;98.70;;;;;;5108675;28;19923;-70
2023/10/22 07:22:32;;;;;;;;;;;12.60;98.80;;;;;;5099865;28;20361;-70
2023/10/22 07:24:58;;;;;;;;;;;12.60;98.80;;;;;;5109537;28;20313;-70
2023/10/22 07:27:23;;;;;;;;;;;12.70;98.80;;;;;;5092161;28;19945;-70
2023/10/22 07:29:49;;;;;;;;;;;12.70;98.80;;;;;;5110046;28;20272;-70
2023/10/22 07:32:14;;;;;;;;;;;12.70;98.60;;;;;;5095678;27;19908;-71
2023/10/22 07:34:40;;;;;;;;;;;12.60;98.70;;;;;;5101440;28;20010;-71
2023/10/22 07:37:05;;;;;;;;;;;12.70;98.70;;;;;;5109483;28;19954;-71
2023/10/22 07:39:31;;;;;;;;;;;12.70;98.70;;;;;;5109986;28;19915;-71
2023/10/22 07:41:57;;;;;;;;;;;12.70;98.70;;;;;;5110241;28;19994;-71
2023/10/22 07:44:22;;;;;;;;;;;12.70;98.70;;;;;;5104378;27;19962;-71
2023/10/22 07:46:48;;;;;;;;;;;12.70;98.60;;;;;;5099247;28;19912;-71
2023/10/22 07:49:14;;;;;;;;;;;12.70;98.60;;;;;;5106078;28;19915;-70
2023/10/22 07:51:39;;;;;;;;;;;12.70;98.60;;;;;;5106162;28;19965;-70
2023/10/22 07:54:05;;;;;;;;;;;12.80;98.60;;;;;;5106363;28;19908;-70
2023/10/22 07:56:30;;;;;;;;;;;12.70;98.60;;;;;;5102509;28;19912;-70
2023/10/22 07:58:56;;;;;;;;;;;12.80;98.60;;;;;;5107260;28;19970;-70
2023/10/22 08:01:23;;;;;;;;;;;12.80;98.60;;;;;;5105519;28;19912;-70
2023/10/22 08:03:50;;;;;;;;;;;12.80;98.60;;;;;;5093212;28;19912;-70
2023/10/22 08:06:16;;;;;;;;;;;12.80;98.60;;;;;;5112223;27;20006;-70
2023/10/22 08:08:41;;;;;;;;;;;12.80;98.50;;;;;;5094438;28;19994;-70
2023/10/22 08:11:07;;;;;;;;;;;12.80;98.50;;;;;;5112881;27;19962;-70
2023/10/22 08:13:32;;;;;;;;;;;12.80;98.50;;;;;;5101990;28;20324;-70
2023/10/22 08:16:01;;;;;;;;;;;12.90;98.40;;;;;;5103384;28;19912;-70
2023/10/22 08:18:26;;;;;;;;;;;12.90;98.50;;;;;;5116187;27;19920;-70
2023/10/22 08:20:52;;;;;;;;;;;12.90;98.50;;;;;;5098155;28;20011;-70
2023/10/22 08:23:18;;;;;;;;;;;12.90;98.40;;;;;;5099360;27;19969;-70
2023/10/22 08:25:50;;;;;;;;;;;12.90;98.50;;;;;;5100732;28;20357;-70
2023/10/22 08:28:15;;;;;;;;;;;12.90;98.50;;;;;;5101208;28;20384;-70
2023/10/22 08:30:44;;;;;;;;;;;12.90;98.30;;;;;;5107632;27;19954;-70
2023/10/22 08:33:09;;;;;;;;;;;12.90;98.40;;;;;;5092432;27;19959;-70
2023/10/22 08:35:35;;;;;;;;;;;13.00;98.20;;;;;;5098697;28;20642;-70
2023/10/22 08:38:00;;;;;;;;;;;13.00;98.30;;;;;;5096984;28;19912;-70
2023/10/22 08:40:26;;;;;;;;;;;13.00;98.20;;;;;;5099117;28;19919;-70
2023/10/22 08:42:53;;;;;;;;;;;13.00;98.30;;;;;;5097826;27;19934;-70
2023/10/22 08:45:19;;;;;;;;;;;13.10;98.30;;;;;;5094426;28;19912;-70
2023/10/22 08:47:44;;;;;;;;;;;13.10;98.30;;;;;;5105633;28;19958;-70
2023/10/22 08:50:11;;;;;;;;;;;13.10;98.30;;;;;;5090245;28;19948;-70
2023/10/22 08:52:37;;;;;;;;;;;13.10;98.20;;;;;;5090674;27;19973;-70
2023/10/22 08:55:03;;;;;;;;;;;13.10;98.20;;;;;;5097878;28;19960;-70
2023/10/22 08:57:29;;;;;;;;;;;13.20;98.20;;;;;;5093460;27;19911;-70
2023/10/22 08:59:54;;;;;;;;;;;13.20;98.10;;;;;;5108761;27;19919;-70
2023/10/22 09:02:26;;;;;;;;;;;13.20;98.10;;;;;;5091164;27;20024;-70
2023/10/22 09:04:52;;;;;;;;;;;13.20;98.10;;;;;;5088767;28;19995;-70
2023/10/22 09:07:18;;;;;;;;;;;13.30;98.10;;;;;;5107449;27;19986;-70
2023/10/22 09:09:43;;;;;;;;;;;13.30;98.00;;;;;;5106948;27;20010;-70
2023/10/22 09:12:10;;;;;;;;;;;13.30;98.00;;;;;;5103369;27;20355;-70
2023/10/22 09:14:36;;;;;;;;;;;13.30;98.00;;;;;;5115959;27;19912;-70
2023/10/22 09:17:29;;;;;;;;;;;13.40;97.90;;;;;;5101053;28;19912;-70
2023/10/22 09:19:54;;;;;;;;;;;13.40;97.90;;;;;;5096423;28;19916;-70
2023/10/22 09:22:22;;;;;;;;;;;13.40;97.80;;;;;;5098161;28;19957;-70
2023/10/22 09:24:49;;;;;;;;;;;13.50;97.90;;;;;;5092784;28;19919;-70
2023/10/22 09:27:35;;;;;;;;;;;13.50;97.70;;;;;;5099607;28;19961;-70
2023/10/22 09:30:02;;;;;;;;;;;13.50;97.80;;;;;;5094340;27;19913;-70
2023/10/22 09:32:27;;;;;;;;;;;13.50;97.80;;;;;;5101809;27;19938;-70
2023/10/22 09:34:53;;;;;;;;;;;13.60;97.80;;;;;;5094761;28;19966;-70
2023/10/22 09:37:18;;;;;;;;;;;13.60;97.80;;;;;;5108008;28;20378;-70
2023/10/22 09:39:44;;;;;;;;;;;13.60;97.70;;;;;;5109586;28;20588;-70
2023/10/22 09:42:11;;;;;;;;;;;13.60;97.70;;;;;;5100559;28;19911;-70
2023/10/22 09:44:38;;;;;;;;;;;13.60;97.60;;;;;;5110822;27;20009;-70
2023/10/22 09:47:06;;;;;;;;;;;13.70;97.70;;;;;;5101627;28;19957;-70
2023/10/22 09:49:32;;;;;;;;;;;13.70;97.60;;;;;;5105492;27;19917;-70
2023/10/22 09:51:59;;;;;;;;;;;13.70;97.60;;;;;;5106380;27;19912;-70
2023/10/22 09:54:41;;;;;;;;;;;13.80;97.60;;;;;;5100222;28;20450;-70
2023/10/22 09:57:06;;;;;;;;;;;13.80;97.50;;;;;;5100777;28;20428;-70
2023/10/22 09:59:32;;;;;;;;;;;13.90;97.50;;;;;;5104586;27;19927;-70
2023/10/22 10:01:58;;;;;;;;;;;13.90;97.40;;;;;;5113710;27;20622;-70
2023/10/22 10:04:24;;;;;;;;;;;13.90;97.40;;;;;;5100804;28;19937;-70
2023/10/22 10:06:51;;;;;;;;;;;13.90;97.40;;;;;;5099307;28;19915;-70
2023/10/22 10:09:16;;;;;;;;;;;13.90;97.40;;;;;;5107437;27;19912;-70
2023/10/22 10:11:42;;;;;;;;;;;13.90;97.40;;;;;;5097262;28;19919;-70
2023/10/22 10:14:27;;;;;;;;;;;14.00;97.40;;;;;;5095905;28;19964;-70
2023/10/22 10:17:00;;;;;;;;;;;13.90;97.40;;;;;;5104086;28;20002;-70
2023/10/22 10:19:26;;;;;;;;;;;14.00;97.50;;;;;;5100308;27;19982;-70
2023/10/22 10:21:52;;;;;;;;;;;14.00;97.50;;;;;;5099306;28;20022;-70
2023/10/22 10:24:25;;;;;;;;;;;14.00;97.50;;;;;;5106814;28;19912;-70
2023/10/22 10:26:56;;;;;;;;;;;14.00;97.40;;;;;;5103798;28;19912;-70
2023/10/22 10:29:23;;;;;;;;;;;14.00;97.60;;;;;;5097511;28;19912;-70
2023/10/22 10:31:51;;;;;;;;;;;14.00;97.50;;;;;;5102073;27;19912;-70
2023/10/22 10:34:32;;;;;;;;;;;14.00;97.50;;;;;;5097118;28;19962;-70
2023/10/22 10:37:08;;;;;;;;;;;14.00;97.60;;;;;;5105231;28;19916;-70
2023/10/22 10:39:44;;;;;;;;;;;14.00;97.50;;;;;;5107833;27;19917;-70
2023/10/22 10:42:10;;;;;;;;;;;14.10;97.60;;;;;;5108643;28;19912;-70
2023/10/22 10:44:59;;;;;;;;;;;14.10;97.60;;;;;;5108993;27;19977;-70
2023/10/22 10:47:24;;;;;;;;;;;14.10;97.60;;;;;;5099554;28;19912;-70
2023/10/22 10:49:50;;;;;;;;;;;14.10;97.50;;;;;;5108710;28;19956;-70
2023/10/22 10:52:15;;;;;;;;;;;14.10;97.50;;;;;;5109790;27;20326;-70
2023/10/22 10:54:57;;;;;;;;;;;14.10;97.40;;;;;;5112841;27;19974;-70
2023/10/22 10:57:39;;;;;;;;;;;14.10;97.50;;;;;;5107778;28;19911;-71
2023/10/22 11:00:05;;;;;;;;;;;14.20;97.40;;;;;;5108171;28;19915;-71
2023/10/22 11:02:41;;;;;;;;;;;14.20;97.50;;;;;;5100922;28;20371;-71
2023/10/22 11:05:06;;;;;;;;;;;14.20;97.40;;;;;;5109366;27;19977;-70
2023/10/22 11:07:32;;;;;;;;;;;14.20;97.40;;;;;;5108538;28;19916;-70
2023/10/22 11:09:57;;;;;;;;;;;14.20;97.40;;;;;;5106299;28;19908;-70
2023/10/22 11:12:24;;;;;;;;;;;14.30;97.40;;;;;;5108090;28;20022;-70
2023/10/22 11:14:55;;;;;;;;;;;14.30;97.40;;;;;;5105406;28;20359;-70
2023/10/22 11:17:20;;;;;;;;;;;14.40;97.30;;;;;;5107559;28;19971;-70
2023/10/22 11:19:49;;;;;;;;;;;14.40;97.40;;;;;;5108073;28;20414;-70
2023/10/22 11:22:15;;;;;;;;;;;14.40;97.30;;;;;;5108253;28;19919;-70
2023/10/22 11:24:40;;;;;;;;;;;14.40;97.20;;;;;;5108638;28;19926;-70
2023/10/22 11:27:06;;;;;;;;;;;14.50;97.30;;;;;;5108564;28;19908;-70
2023/10/22 11:29:39;;;;;;;;;;;14.50;97.30;;;;;;5108165;28;20505;-70
2023/10/22 11:32:09;;;;;;;;;;;14.50;97.20;;;;;;5107934;28;19922;-70
2023/10/22 11:34:35;;;;;;;;;;;14.50;97.20;;;;;;5100409;28;19907;-70
2023/10/22 11:37:00;;;;;;;;;;;14.50;97.30;;;;;;5107799;28;19934;-70
2023/10/22 11:39:33;;;;;;;;;;;14.50;97.30;;;;;;5107370;28;20356;-70
2023/10/22 11:41:59;;;;;;;;;;;14.50;97.20;;;;;;5107576;28;19916;-70
2023/10/22 11:44:31;;;;;;;;;;;14.50;97.30;;;;;;5124090;27;20408;-70
2023/10/22 11:46:57;;;;;;;;;;;14.60;97.30;;;;;;5106722;28;20377;-70
2023/10/22 11:49:23;;;;;;;;;;;14.60;97.20;;;;;;5111735;28;20090;-70
2023/10/22 11:51:48;;;;;;;;;;;14.60;97.20;;;;;;5117559;27;19973;-71
2023/10/22 11:54:14;;;;;;;;;;;14.60;97.10;;;;;;5112109;27;19912;-71
2023/10/22 11:56:40;;;;;;;;;;;14.60;97.20;;;;;;5111150;28;20419;-70
2023/10/22 11:59:06;;;;;;;;;;;14.60;97.10;;;;;;5112988;28;19942;-70
2023/10/22 12:01:32;;;;;;;;;;;14.70;97.20;;;;;;5119408;27;20596;-70
2023/10/22 12:03:58;;;;;;;;;;;14.70;97.10;;;;;;5112688;27;19912;-70
2023/10/22 12:06:23;;;;;;;;;;;14.70;97.00;;;;;;5112311;28;19918;-71
2023/10/22 12:08:49;;;;;;;;;;;14.70;97.10;;;;;;5112247;28;19919;-71
2023/10/22 12:11:14;;;;;;;;;;;14.80;97.00;;;;;;5112416;28;19912;-71
2023/10/22 12:13:40;;;;;;;;;;;14.80;97.00;;;;;;5110843;28;19908;-70
2023/10/22 12:16:05;;;;;;;;;;;14.80;96.90;;;;;;5112370;28;20002;-70
2023/10/22 12:18:31;;;;;;;;;;;14.80;96.90;;;;;;5123573;27;19922;-70
2023/10/22 12:20:57;;;;;;;;;;;14.80;96.90;;;;;;5117048;27;19985;-70
2023/10/22 12:23:23;;;;;;;;;;;14.90;96.90;;;;;;5120341;27;19961;-70
2023/10/22 12:25:48;;;;;;;;;;;14.90;97.00;;;;;;5111944;28;20365;-70
2023/10/22 12:28:14;;;;;;;;;;;14.90;96.90;;;;;;5111827;28;20052;-70
2023/10/22 12:30:39;;;;;;;;;;;14.90;96.90;;;;;;5116157;27;19923;-70
2023/10/22 12:33:05;;;;;;;;;;;15.00;96.90;;;;;;5104009;28;19922;-70
2023/10/22 12:35:30;;;;;;;;;;;15.00;96.70;;;;;;5119460;27;20931;-70
2023/10/22 12:37:56;;;;;;;;;;;15.00;96.60;;;;;;5118314;27;19912;-70
2023/10/22 12:40:22;;;;;;;;;;;15.10;96.80;;;;;;5113731;27;20483;-70
2023/10/22 12:42:47;;;;;;;;;;;15.10;96.60;;;;;;5118358;27;19957;-70
2023/10/22 12:45:13;;;;;;;;;;;15.10;96.70;;;;;;5111159;28;20011;-70
2023/10/22 12:47:38;;;;;;;;;;;15.10;96.80;;;;;;5111974;28;19911;-70
2023/10/22 12:50:04;;;;;;;;;;;15.10;96.70;;;;;;5111615;28;19912;-70
2023/10/22 12:52:30;;;;;;;;;;;15.10;96.70;;;;;;5124895;27;19972;-70
2023/10/22 12:54:55;;;;;;;;;;;15.10;96.60;;;;;;5118173;27;19908;-70
2023/10/22 12:57:21;;;;;;;;;;;15.10;96.80;;;;;;5131573;27;20368;-70
2023/10/22 12:59:46;;;;;;;;;;;15.10;96.60;;;;;;5115517;27;19919;-70
2023/10/22 13:02:12;;;;;;;;;;;15.20;96.80;;;;;;5097069;27;20010;-70
2023/10/22 13:04:38;;;;;;;;;;;15.20;96.70;;;;;;5119422;27;19979;-70
2023/10/22 13:07:03;;;;;;;;;;;15.20;96.50;;;;;;5110735;28;20410;-70
2023/10/22 13:09:29;;;;;;;;;;;15.20;96.60;;;;;;5110343;27;19915;-70
2023/10/22 13:11:54;;;;;;;;;;;15.20;96.70;;;;;;5109370;28;19911;-70
2023/10/22 13:14:20;;;;;;;;;;;15.20;96.70;;;;;;5109911;28;20032;-70
2023/10/22 13:16:46;;;;;;;;;;;15.20;96.50;;;;;;5105634;28;19912;-70
2023/10/22 13:19:12;;;;;;;;;;;15.20;96.60;;;;;;5108020;27;19923;-70
2023/10/22 13:21:37;;;;;;;;;;;15.20;96.70;;;;;;5118106;27;19918;-70
2023/10/22 13:24:03;;;;;;;;;;;15.20;96.60;;;;;;5110225;28;19912;-71
2023/10/22 13:26:29;;;;;;;;;;;15.20;96.50;;;;;;5106903;28;19923;-71
2023/10/22 13:28:54;;;;;;;;;;;15.30;96.80;;;;;;5104544;28;19919;-71
2023/10/22 13:31:20;;;;;;;;;;;15.30;96.50;;;;;;5112007;27;19914;-70
2023/10/22 13:33:45;;;;;;;;;;;15.30;96.70;;;;;;5095981;28;19922;-70
2023/10/22 13:36:11;;;;;;;;;;;15.30;96.70;;;;;;5126679;27;19907;-70
2023/10/22 13:38:37;;;;;;;;;;;15.40;96.70;;;;;;5122747;27;20644;-70
2023/10/22 13:41:03;;;;;;;;;;;15.40;96.60;;;;;;5107411;27;19915;-71
2023/10/22 13:43:28;;;;;;;;;;;15.40;96.70;;;;;;5101791;27;19916;-71
2023/10/22 13:45:54;;;;;;;;;;;15.40;96.70;;;;;;5095408;28;19908;-70
2023/10/22 13:48:20;;;;;;;;;;;15.40;96.60;;;;;;5099620;28;19914;-70
2023/10/22 13:50:45;;;;;;;;;;;15.40;96.70;;;;;;5110249;28;19907;-70
2023/10/22 13:53:12;;;;;;;;;;;15.40;96.70;;;;;;5109545;28;19965;-70
2023/10/22 13:55:37;;;;;;;;;;;15.40;96.70;;;;;;5102564;28;20627;-70
2023/10/22 13:58:03;;;;;;;;;;;15.30;96.80;;;;;;5108234;27;20006;-70
2023/10/22 14:00:28;;;;;;;;;;;15.30;96.80;;;;;;5114407;27;20037;-70
2023/10/22 14:02:54;;;;;;;;;;;15.30;96.90;;;;;;5110167;27;19919;-70
2023/10/22 14:05:19;;;;;;;;;;;15.30;96.90;;;;;;5103081;27;19994;-70
2023/10/22 14:07:48;;;;;;;;;;;15.30;97.00;;;;;;5108320;27;20041;-70
2023/10/22 14:10:14;;;;;;;;;;;15.30;97.00;;;;;;5117394;27;19919;-70
2023/10/22 14:12:39;;;;;;;;;;;15.30;97.10;;;;;;5101368;28;19912;-70